Terminal Aerodrome Forecast
Issued by NWS

Home | Current Version | Previous Version | Text Only | Print | Product List | Glossary On
Versions: 1 2 3 4 5 6 7 8 9 10 11 12 13 14 15 16
898
FTUS43 KILX 241731
TAFCMI
TAF
KCMI 241731Z 2418/2518 VRB05KT P6SM OVC015
     FM242200 15010KT P6SM BKN015
     FM250600 16012KT P6SM BKN010
     FM251700 24016G25KT P6SM BKN020=

USA.gov is the U.S. government's official web portal to all federal, state and local government web resources and services.